Time;durP1;ratioP1;P1;durP2;ratioP2;P2;SDS_P1;SDS_P2;PMS_P1;PMS_P2;Temp;Humidity;BMP_temperature;BMP_pressure;BME280_temperature;BME280_humidity;BME280_pressure;Samples;Min_cycle;Max_cycle;Signal;HPM_P1;HPM_P2
2023/12/27 00:01:38;;;;;;;1.55;0.93;;;3.00;99.90;;;;;;5072180;28;20123;-63
2023/12/27 00:04:03;;;;;;;1.08;0.98;;;3.00;99.90;;;;;;5071769;28;20039;-63
2023/12/27 00:06:29;;;;;;;1.75;1.08;;;2.90;99.90;;;;;;5072154;28;20044;-63
2023/12/27 00:08:55;;;;;;;3.05;1.40;;;2.90;99.90;;;;;;5072057;28;20372;-63
2023/12/27 00:11:21;;;;;;;2.15;1.20;;;2.80;99.90;;;;;;5072018;28;20043;-63
2023/12/27 00:13:46;;;;;;;2.40;1.30;;;3.10;99.90;;;;;;5071975;28;20194;-63
2023/12/27 00:16:12;;;;;;;1.13;1.00;;;2.80;99.90;;;;;;5071955;28;20047;-63
2023/12/27 00:18:38;;;;;;;3.63;1.30;;;2.70;99.90;;;;;;5072228;28;20052;-63
2023/12/27 00:21:04;;;;;;;2.90;1.20;;;2.70;99.90;;;;;;5071967;28;20115;-63
2023/12/27 00:23:29;;;;;;;1.95;1.13;;;2.70;99.90;;;;;;5087188;28;20037;-63
2023/12/27 00:25:56;;;;;;;2.08;1.35;;;2.70;99.90;;;;;;5071628;28;20090;-65
2023/12/27 00:28:22;;;;;;;3.53;1.20;;;2.60;99.90;;;;;;5071861;28;20589;-64
2023/12/27 00:30:49;;;;;;;2.72;1.50;;;2.60;99.90;;;;;;5072490;28;20044;-64
2023/12/27 00:33:18;;;;;;;2.25;1.05;;;2.60;99.90;;;;;;5072569;28;20036;-63
2023/12/27 00:35:43;;;;;;;1.60;1.08;;;2.70;99.90;;;;;;5072654;28;20048;-63
2023/12/27 00:38:09;;;;;;;2.03;0.93;;;2.70;99.90;;;;;;5072643;28;20040;-63
2023/12/27 00:40:35;;;;;;;2.47;1.30;;;2.70;99.90;;;;;;5072636;28;20043;-63
2023/12/27 00:43:00;;;;;;;1.75;1.38;;;2.70;99.90;;;;;;5072606;28;20108;-63
2023/12/27 00:45:26;;;;;;;2.33;1.17;;;3.00;99.90;;;;;;5072490;28;20061;-63
2023/12/27 00:47:52;;;;;;;4.38;1.25;;;2.60;99.90;;;;;;5070949;28;20037;-63
2023/12/27 00:50:18;;;;;;;1.73;0.82;;;2.60;99.90;;;;;;5072547;28;20119;-63
2023/12/27 00:52:44;;;;;;;2.40;1.45;;;3.40;99.90;;;;;;5073022;28;20056;-63
2023/12/27 00:55:09;;;;;;;1.65;1.10;;;2.60;99.90;;;;;;5074710;28;20052;-63
2023/12/27 00:57:35;;;;;;;3.30;1.25;;;3.00;99.90;;;;;;5074741;28;20115;-63
2023/12/27 01:00:01;;;;;;;2.88;1.20;;;2.60;99.90;;;;;;5076239;28;20499;-63
2023/12/27 01:02:26;;;;;;;1.67;1.10;;;2.60;99.90;;;;;;5075866;28;20162;-63
2023/12/27 01:04:55;;;;;;;1.05;0.82;;;2.60;99.90;;;;;;5076125;28;20050;-63
2023/12/27 01:07:22;;;;;;;3.00;1.35;;;2.60;99.90;;;;;;5075756;28;20041;-63
2023/12/27 01:09:48;;;;;;;8.50;1.17;;;2.60;99.90;;;;;;5076044;28;20036;-63
2023/12/27 01:12:14;;;;;;;5.28;1.38;;;2.50;99.90;;;;;;5076204;28;20123;-60
2023/12/27 01:14:39;;;;;;;1.40;1.00;;;2.60;99.90;;;;;;5075892;28;20136;-60
2023/12/27 01:17:05;;;;;;;3.92;1.52;;;2.60;99.90;;;;;;5074643;28;20106;-60
2023/12/27 01:19:31;;;;;;;2.35;1.67;;;3.40;99.90;;;;;;5075931;28;20076;-59
2023/12/27 01:21:56;;;;;;;1.90;0.85;;;2.60;99.90;;;;;;5075563;28;20395;-59
2023/12/27 01:24:23;;;;;;;2.97;1.63;;;2.60;99.90;;;;;;5075756;28;20050;-59
2023/12/27 01:26:48;;;;;;;1.33;1.15;;;2.80;99.90;;;;;;5074309;28;20041;-60
2023/12/27 01:29:14;;;;;;;2.40;1.13;;;2.50;99.90;;;;;;5075758;28;20560;-60
2023/12/27 01:31:40;;;;;;;1.02;0.93;;;2.50;99.90;;;;;;5075748;28;20036;-60
2023/12/27 01:34:05;;;;;;;1.88;1.40;;;2.40;99.90;;;;;;5073996;28;20047;-60
2023/12/27 01:36:31;;;;;;;2.15;1.25;;;2.40;99.90;;;;;;5057632;28;20549;-60
2023/12/27 01:38:57;;;;;;;2.72;1.48;;;2.40;99.90;;;;;;5074043;28;20047;-60
2023/12/27 01:41:23;;;;;;;1.92;1.25;;;2.70;99.90;;;;;;5075264;28;20408;-59
2023/12/27 01:43:48;;;;;;;1.85;1.00;;;2.90;99.90;;;;;;5075484;28;20037;-59
2023/12/27 01:46:14;;;;;;;1.48;0.90;;;2.50;99.90;;;;;;5057505;28;20507;-60
2023/12/27 01:48:41;;;;;;;2.67;1.55;;;2.60;99.90;;;;;;5075306;28;20150;-59
2023/12/27 01:51:07;;;;;;;2.63;1.40;;;2.90;99.90;;;;;;5075050;28;20041;-62
2023/12/27 01:53:34;;;;;;;1.10;0.93;;;2.40;99.90;;;;;;5074764;28;20187;-60
2023/12/27 01:56:01;;;;;;;1.95;1.17;;;2.30;99.90;;;;;;5075262;28;20060;-60
2023/12/27 01:58:27;;;;;;;1.98;1.38;;;2.40;99.90;;;;;;5073908;28;20045;-61
2023/12/27 02:00:53;;;;;;;6.30;1.45;;;2.30;99.90;;;;;;5074824;28;20082;-60
2023/12/27 02:03:21;;;;;;;2.47;1.13;;;2.30;99.90;;;;;;5074669;28;20040;-60
2023/12/27 02:05:48;;;;;;;2.42;1.00;;;2.80;99.90;;;;;;5075046;28;20415;-59
2023/12/27 02:08:15;;;;;;;2.13;1.30;;;2.20;99.90;;;;;;5073450;28;20050;-60
2023/12/27 02:10:42;;;;;;;1.40;1.30;;;2.20;99.90;;;;;;5075010;28;20048;-60
2023/12/27 02:13:08;;;;;;;3.05;1.33;;;2.10;99.90;;;;;;5090217;28;20120;-59
2023/12/27 02:15:35;;;;;;;2.63;1.27;;;2.20;99.90;;;;;;5073263;28;20140;-60
2023/12/27 02:18:03;;;;;;;3.53;1.33;;;2.60;99.90;;;;;;5073410;28;20135;-60
2023/12/27 02:20:29;;;;;;;1.48;1.33;;;2.20;99.90;;;;;;5073488;28;20454;-59
2023/12/27 02:22:57;;;;;;;2.25;1.30;;;2.20;99.90;;;;;;5074636;28;20076;-69
2023/12/27 02:25:23;;;;;;;2.83;1.50;;;2.10;99.90;;;;;;5074536;28;20105;-70
2023/12/27 02:27:48;;;;;;;2.30;1.30;;;2.10;99.90;;;;;;5074552;28;20050;-70
2023/12/27 02:30:21;;;;;;;3.63;1.63;;;2.00;99.90;;;;;;5089915;28;20494;-70
2023/12/27 02:32:50;;;;;;;3.47;1.33;;;2.60;99.90;;;;;;5072942;28;20059;-70
2023/12/27 02:35:20;;;;;;;1.58;1.23;;;2.10;99.90;;;;;;5074301;28;20643;-70
2023/12/27 02:37:46;;;;;;;1.67;1.10;;;2.00;99.90;;;;;;5072925;28;20040;-70
2023/12/27 02:40:11;;;;;;;1.30;0.90;;;2.00;99.90;;;;;;5074337;28;20044;-70
2023/12/27 02:42:38;;;;;;;2.17;1.38;;;2.10;99.90;;;;;;5073937;28;20434;-70
2023/12/27 02:45:05;;;;;;;1.73;1.42;;;2.00;99.90;;;;;;5072638;28;20051;-71
2023/12/27 02:47:31;;;;;;;1.38;1.27;;;2.00;99.90;;;;;;5072676;28;20048;-70
2023/12/27 02:49:56;;;;;;;3.85;1.42;;;1.90;99.90;;;;;;5073824;28;20041;-67
2023/12/27 02:52:22;;;;;;;1.20;0.98;;;1.90;99.90;;;;;;5072370;28;20128;-70
2023/12/27 02:54:47;;;;;;;2.25;1.10;;;1.90;99.90;;;;;;5073740;28;20145;-70
2023/12/27 02:57:13;;;;;;;1.67;1.20;;;1.90;99.90;;;;;;5073955;28;20557;-70
2023/12/27 02:59:39;;;;;;;2.83;1.42;;;1.80;99.90;;;;;;5073720;28;20526;-68
2023/12/27 03:02:05;;;;;;;1.30;1.10;;;1.90;99.90;;;;;;5055781;28;20099;-70
2023/12/27 03:04:30;;;;;;;2.67;1.50;;;1.90;99.90;;;;;;5072321;28;20044;-72
2023/12/27 03:06:56;;;;;;;3.15;1.70;;;1.90;99.90;;;;;;5073543;28;20446;-70
2023/12/27 03:09:22;;;;;;;3.58;1.27;;;1.90;99.90;;;;;;5073449;28;20505;-70
2023/12/27 03:11:47;;;;;;;3.10;1.63;;;2.50;99.90;;;;;;5073737;28;20094;-70
2023/12/27 03:14:14;;;;;;;2.55;1.45;;;2.70;99.90;;;;;;5073061;28;20123;-70
2023/12/27 03:16:39;;;;;;;3.58;1.90;;;2.40;99.90;;;;;;5073471;28;20377;-71
2023/12/27 03:19:05;;;;;;;2.08;1.30;;;2.00;99.90;;;;;;5055448;28;20036;-70
2023/12/27 03:21:31;;;;;;;2.10;1.42;;;2.00;99.90;;;;;;5073393;28;20484;-71
2023/12/27 03:23:57;;;;;;;1.73;1.20;;;2.10;99.90;;;;;;5073542;28;20043;-70
2023/12/27 03:26:22;;;;;;;2.13;1.30;;;2.10;99.90;;;;;;5073210;28;20606;-70
2023/12/27 03:28:48;;;;;;;2.75;1.08;;;2.10;99.90;;;;;;5071949;28;20064;-70
2023/12/27 03:31:14;;;;;;;3.75;2.28;;;2.10;99.90;;;;;;5071927;28;20480;-70
2023/12/27 03:33:39;;;;;;;1.80;1.20;;;2.10;99.90;;;;;;5088893;28;20040;-63
2023/12/27 03:36:05;;;;;;;2.00;1.20;;;2.40;99.90;;;;;;5071827;28;20123;-63
2023/12/27 03:38:31;;;;;;;4.55;1.55;;;2.10;99.90;;;;;;5071841;28;20041;-63
2023/12/27 03:40:57;;;;;;;2.05;1.30;;;1.90;99.90;;;;;;5071733;28;20433;-63
2023/12/27 03:43:23;;;;;;;2.35;1.30;;;2.10;99.90;;;;;;5073257;28;20048;-63
2023/12/27 03:45:50;;;;;;;2.25;1.60;;;2.10;99.90;;;;;;5071713;28;20045;-63
2023/12/27 03:48:16;;;;;;;2.33;1.33;;;2.10;99.90;;;;;;5072863;28;20054;-63
2023/12/27 03:50:42;;;;;;;2.20;1.20;;;2.00;99.90;;;;;;5072931;28;20128;-63
2023/12/27 03:53:07;;;;;;;1.33;1.08;;;2.00;99.90;;;;;;5072748;28;20049;-64
2023/12/27 03:55:33;;;;;;;4.78;1.42;;;2.00;99.90;;;;;;5073117;28;20036;-65
2023/12/27 03:57:59;;;;;;;3.53;1.35;;;2.00;99.90;;;;;;5073029;28;20036;-63
2023/12/27 04:00:25;;;;;;;2.80;1.48;;;2.00;99.90;;;;;;5073078;28;20627;-63
2023/12/27 04:02:51;;;;;;;3.30;1.52;;;2.00;99.90;;;;;;5072689;28;20072;-63
2023/12/27 04:05:17;;;;;;;2.65;1.70;;;2.10;99.90;;;;;;5073035;28;20078;-63
2023/12/27 04:07:42;;;;;;;2.83;1.70;;;2.00;99.90;;;;;;5073036;28;20041;-63
2023/12/27 04:10:08;;;;;;;4.15;1.90;;;2.10;99.90;;;;;;5072984;28;20064;-63
2023/12/27 04:12:34;;;;;;;2.67;1.23;;;2.00;99.90;;;;;;5071620;28;20048;-63
2023/12/27 04:14:59;;;;;;;2.15;1.42;;;2.00;99.90;;;;;;5072849;28;20032;-64
2023/12/27 04:17:25;;;;;;;2.30;1.30;;;2.00;99.90;;;;;;5071329;28;20558;-63
2023/12/27 04:19:52;;;;;;;1.80;1.70;;;2.00;99.90;;;;;;5071640;28;20075;-63
2023/12/27 04:22:17;;;;;;;1.88;1.20;;;1.90;99.90;;;;;;5072818;28;20047;-63
2023/12/27 04:24:43;;;;;;;1.85;1.40;;;2.50;99.90;;;;;;5072815;28;20032;-63
2023/12/27 04:27:09;;;;;;;2.53;1.50;;;1.90;99.90;;;;;;5075717;28;20507;-64
2023/12/27 04:29:34;;;;;;;2.40;1.45;;;2.00;99.90;;;;;;5076910;28;20040;-63
2023/12/27 04:32:00;;;;;;;2.08;1.50;;;1.90;99.90;;;;;;5076897;28;20510;-63
2023/12/27 04:34:25;;;;;;;1.95;1.40;;;1.90;99.90;;;;;;5076372;28;20040;-63
2023/12/27 04:36:51;;;;;;;2.53;1.45;;;2.00;99.90;;;;;;5076729;28;20136;-63
2023/12/27 04:39:17;;;;;;;1.67;1.30;;;2.10;99.90;;;;;;5076636;28;20455;-63
2023/12/27 04:41:42;;;;;;;2.42;1.40;;;2.10;99.90;;;;;;5076654;28;20107;-63
2023/12/27 04:44:08;;;;;;;1.80;1.35;;;2.10;99.90;;;;;;5076793;28;20032;-63
2023/12/27 04:46:37;;;;;;;2.13;1.38;;;2.10;99.90;;;;;;5076547;28;20041;-63
2023/12/27 04:49:04;;;;;;;1.80;1.48;;;2.20;99.90;;;;;;5076514;28;20380;-63
2023/12/27 04:51:30;;;;;;;2.47;2.03;;;2.10;99.90;;;;;;5076468;28;20037;-63
2023/12/27 04:53:56;;;;;;;1.73;1.45;;;2.10;99.90;;;;;;5075814;28;20049;-63
2023/12/27 04:56:22;;;;;;;2.00;1.40;;;2.10;99.90;;;;;;5074833;28;20120;-63
2023/12/27 04:58:47;;;;;;;1.42;1.33;;;2.10;99.90;;;;;;5076357;28;20039;-63
2023/12/27 05:01:16;;;;;;;2.38;1.63;;;2.10;99.90;;;;;;5076264;28;20116;-63
2023/12/27 05:03:41;;;;;;;2.35;1.50;;;2.10;99.90;;;;;;5075833;28;20041;-63
2023/12/27 05:06:11;;;;;;;3.05;1.35;;;2.10;99.90;;;;;;5076182;28;20040;-63
2023/12/27 05:08:42;;;;;;;1.42;1.30;;;2.10;99.90;;;;;;5075830;28;20048;-63
2023/12/27 05:11:18;;;;;;;1.95;1.20;;;2.10;99.90;;;;;;5075748;28;20035;-63
2023/12/27 05:13:44;;;;;;;2.42;1.30;;;2.10;99.90;;;;;;5074500;28;20048;-63
2023/12/27 05:16:17;;;;;;;2.33;1.50;;;2.70;99.90;;;;;;5075863;28;20476;-63
2023/12/27 05:18:44;;;;;;;1.98;1.52;;;2.10;99.90;;;;;;5075885;28;20032;-63
2023/12/27 05:21:14;;;;;;;2.78;1.67;;;2.20;99.90;;;;;;5075940;28;20135;-63
2023/12/27 05:23:40;;;;;;;2.30;1.52;;;2.20;99.90;;;;;;5075879;28;20048;-65
2023/12/27 05:26:06;;;;;;;2.70;1.90;;;2.20;99.90;;;;;;5075827;28;20503;-65
2023/12/27 05:28:32;;;;;;;2.90;1.48;;;2.20;99.90;;;;;;5074412;28;20055;-63
2023/12/27 05:30:58;;;;;;;2.50;1.50;;;2.30;99.90;;;;;;5075437;28;20036;-63
2023/12/27 05:33:24;;;;;;;2.53;1.70;;;2.30;99.90;;;;;;5075578;28;20395;-63
2023/12/27 05:35:50;;;;;;;3.08;1.40;;;2.30;99.90;;;;;;5075291;28;20040;-63
2023/12/27 05:38:16;;;;;;;2.53;1.55;;;2.70;99.90;;;;;;5073169;28;20133;-63
2023/12/27 05:40:42;;;;;;;2.35;1.40;;;2.30;99.90;;;;;;5075557;28;20631;-63
2023/12/27 05:43:08;;;;;;;3.08;1.63;;;2.50;99.90;;;;;;5075270;28;20041;-63
2023/12/27 05:45:33;;;;;;;2.42;1.60;;;2.40;99.90;;;;;;5075474;28;20037;-63
2023/12/27 05:47:59;;;;;;;2.50;1.42;;;2.40;99.90;;;;;;5090988;28;20043;-63
2023/12/27 05:50:25;;;;;;;2.70;1.58;;;2.40;99.90;;;;;;5075099;28;20085;-63
2023/12/27 05:52:50;;;;;;;1.83;1.63;;;2.80;99.90;;;;;;5074965;28;20095;-59
2023/12/27 05:55:16;;;;;;;3.88;1.75;;;2.40;99.90;;;;;;5073660;28;20048;-59
2023/12/27 05:57:42;;;;;;;1.58;1.23;;;2.40;99.90;;;;;;5074040;28;20484;-58
2023/12/27 06:00:08;;;;;;;1.75;1.38;;;2.40;99.90;;;;;;5090552;28;20033;-59
2023/12/27 06:02:34;;;;;;;1.20;1.00;;;2.40;99.90;;;;;;5073671;28;20041;-59
2023/12/27 06:05:00;;;;;;;1.88;1.33;;;2.50;99.90;;;;;;5074863;28;20499;-59
2023/12/27 06:07:26;;;;;;;2.10;1.50;;;3.10;99.90;;;;;;5074786;28;20472;-59
2023/12/27 06:09:52;;;;;;;1.77;1.38;;;2.50;99.90;;;;;;5073506;28;20048;-59
2023/12/27 06:12:18;;;;;;;3.20;1.83;;;2.40;99.90;;;;;;5074678;28;20098;-59
2023/12/27 06:14:44;;;;;;;1.25;1.15;;;3.10;99.90;;;;;;5074805;28;20041;-59
2023/12/27 06:17:10;;;;;;;1.88;1.67;;;2.50;99.90;;;;;;5074854;28;20090;-59
2023/12/27 06:19:36;;;;;;;2.25;1.58;;;2.50;99.90;;;;;;5074845;28;20476;-59
2023/12/27 06:22:02;;;;;;;1.95;1.60;;;2.60;99.90;;;;;;5073208;28;20501;-59
2023/12/27 06:24:28;;;;;;;2.33;1.42;;;2.60;99.90;;;;;;5074719;28;20484;-59
2023/12/27 06:26:54;;;;;;;2.97;1.77;;;2.60;99.90;;;;;;5074354;28;20043;-59
2023/12/27 06:29:20;;;;;;;2.22;1.35;;;2.60;99.90;;;;;;5074581;28;20518;-59
2023/12/27 06:31:45;;;;;;;1.45;1.35;;;2.60;99.90;;;;;;5074660;28;20044;-59
2023/12/27 06:34:11;;;;;;;1.48;1.25;;;2.70;99.90;;;;;;5074493;28;20033;-59
2023/12/27 06:36:38;;;;;;;2.08;1.42;;;2.70;99.90;;;;;;5074511;28;20040;-59
2023/12/27 06:39:06;;;;;;;1.95;1.52;;;2.70;99.90;;;;;;5072945;28;20043;-58
2023/12/27 06:41:34;;;;;;;2.20;1.45;;;2.80;99.90;;;;;;5074440;28;20047;-59
2023/12/27 06:44:00;;;;;;;3.10;1.63;;;2.70;99.90;;;;;;5074069;28;20452;-59
2023/12/27 06:46:26;;;;;;;2.08;1.73;;;2.70;99.90;;;;;;5074051;28;20125;-59
2023/12/27 06:48:51;;;;;;;1.38;1.20;;;2.70;99.90;;;;;;5072616;28;20044;-59
2023/12/27 06:51:17;;;;;;;1.70;1.60;;;2.70;99.90;;;;;;5072615;28;20508;-59
2023/12/27 06:53:43;;;;;;;1.95;1.77;;;2.70;99.90;;;;;;5072531;28;20512;-59
2023/12/27 06:56:12;;;;;;;2.78;1.73;;;2.70;99.90;;;;;;5074223;28;20070;-59
2023/12/27 06:58:38;;;;;;;1.63;1.38;;;2.80;99.90;;;;;;5073060;28;20523;-59
2023/12/27 07:01:04;;;;;;;2.10;1.50;;;3.40;99.90;;;;;;5074223;28;20111;-60
2023/12/27 07:03:30;;;;;;;2.13;1.92;;;2.80;99.90;;;;;;5074005;28;20095;-63
2023/12/27 07:05:55;;;;;;;2.58;1.88;;;2.80;99.90;;;;;;5073803;28;20075;-62
2023/12/27 07:08:21;;;;;;;2.10;1.80;;;2.70;99.90;;;;;;5072991;28;20046;-63
2023/12/27 07:10:46;;;;;;;1.95;1.50;;;2.80;99.90;;;;;;5072514;28;20083;-66
2023/12/27 07:13:13;;;;;;;1.52;1.25;;;2.80;99.90;;;;;;5071217;28;20407;-63
2023/12/27 07:15:39;;;;;;;1.45;1.35;;;2.70;99.90;;;;;;5071439;28;20123;-63
2023/12/27 07:18:06;;;;;;;2.97;1.50;;;2.80;99.90;;;;;;5072426;28;20119;-63
2023/12/27 07:20:32;;;;;;;2.30;1.52;;;2.80;99.90;;;;;;5072352;28;20089;-63
2023/12/27 07:22:57;;;;;;;2.92;1.80;;;2.80;99.90;;;;;;5072403;28;20041;-63
2023/12/27 07:25:23;;;;;;;2.58;1.42;;;2.70;99.90;;;;;;5072565;28;20040;-62
2023/12/27 07:27:48;;;;;;;2.60;1.90;;;2.80;99.90;;;;;;5071168;28;20504;-63
2023/12/27 07:30:14;;;;;;;6.05;1.52;;;2.70;99.90;;;;;;5072542;28;20063;-63
2023/12/27 07:32:40;;;;;;;2.50;1.63;;;2.80;99.90;;;;;;5054315;28;20481;-63
2023/12/27 07:35:06;;;;;;;2.70;1.77;;;2.80;99.90;;;;;;5072375;28;20040;-63
2023/12/27 07:37:31;;;;;;;2.15;1.50;;;2.80;99.90;;;;;;5072175;28;20132;-64
2023/12/27 07:39:57;;;;;;;1.85;1.55;;;2.90;99.90;;;;;;5070866;28;20484;-64
2023/12/27 07:42:24;;;;;;;1.90;1.70;;;2.80;99.90;;;;;;5072048;28;20068;-63
2023/12/27 07:44:50;;;;;;;2.40;1.70;;;2.90;99.90;;;;;;5072031;28;20047;-63
2023/12/27 07:47:16;;;;;;;2.80;1.75;;;2.90;99.90;;;;;;5072296;28;20523;-63
2023/12/27 07:49:42;;;;;;;2.15;1.70;;;2.90;99.90;;;;;;5072296;28;20053;-63
2023/12/27 07:52:08;;;;;;;2.60;1.75;;;3.30;99.90;;;;;;5072057;28;20508;-63
2023/12/27 07:54:36;;;;;;;3.80;1.67;;;3.20;99.90;;;;;;5072138;28;20048;-64
2023/12/27 07:57:02;;;;;;;1.73;1.58;;;3.10;99.90;;;;;;5070538;28;20044;-63
2023/12/27 07:59:27;;;;;;;2.45;1.55;;;3.10;99.90;;;;;;5072163;28;20083;-63
2023/12/27 08:01:53;;;;;;;3.15;2.05;;;3.10;99.90;;;;;;5071316;28;20040;-63
2023/12/27 08:04:19;;;;;;;3.20;1.98;;;3.10;99.90;;;;;;5072159;28;20036;-63
2023/12/27 08:06:45;;;;;;;2.00;1.70;;;3.10;99.90;;;;;;5072078;28;20044;-64
2023/12/27 08:09:11;;;;;;;2.63;1.63;;;3.20;99.90;;;;;;5072082;28;20423;-63
2023/12/27 08:11:37;;;;;;;2.33;1.75;;;3.20;99.90;;;;;;5071746;28;20051;-62
2023/12/27 08:14:03;;;;;;;1.70;1.40;;;4.00;99.90;;;;;;5071872;28;20045;-59
2023/12/27 08:16:29;;;;;;;2.13;1.45;;;3.30;99.90;;;;;;5071959;28;20094;-59
2023/12/27 08:18:54;;;;;;;1.98;1.38;;;3.30;99.90;;;;;;5070354;28;20033;-59
2023/12/27 08:21:21;;;;;;;2.70;1.85;;;3.30;99.90;;;;;;5071988;28;20662;-59
2023/12/27 08:23:47;;;;;;;1.55;1.45;;;3.70;99.90;;;;;;5087187;28;20059;-61
2023/12/27 08:26:12;;;;;;;3.25;1.95;;;3.50;99.90;;;;;;5071947;28;20127;-59
2023/12/27 08:28:38;;;;;;;2.60;1.70;;;3.50;99.90;;;;;;5087378;28;20051;-59
2023/12/27 08:31:04;;;;;;;1.98;1.63;;;3.60;99.90;;;;;;5087366;28;20044;-60
2023/12/27 08:33:35;;;;;;;1.98;1.27;;;3.60;99.90;;;;;;5070260;28;20041;-59
2023/12/27 08:36:01;;;;;;;2.88;1.65;;;3.60;99.90;;;;;;5070814;28;20063;-60
2023/12/27 08:38:28;;;;;;;3.08;1.65;;;3.70;99.90;;;;;;5071387;28;20044;-59
2023/12/27 08:40:54;;;;;;;2.03;1.38;;;3.70;99.90;;;;;;5069947;28;20049;-60
2023/12/27 08:43:19;;;;;;;2.22;1.42;;;3.70;99.90;;;;;;5071563;28;20476;-59
2023/12/27 08:45:48;;;;;;;2.88;1.40;;;3.80;99.90;;;;;;5071508;28;20041;-60
2023/12/27 08:48:14;;;;;;;1.50;1.10;;;3.80;99.90;;;;;;5070665;28;20047;-60
2023/12/27 08:50:41;;;;;;;2.60;1.85;;;4.60;99.90;;;;;;5071812;28;20515;-60
2023/12/27 08:53:07;;;;;;;2.30;1.55;;;3.90;99.90;;;;;;5071875;28;20415;-60
2023/12/27 08:55:33;;;;;;;2.53;1.45;;;4.80;99.90;;;;;;5070044;28;20040;-60
2023/12/27 08:57:59;;;;;;;1.58;1.40;;;4.00;99.90;;;;;;5070128;28;20110;-60
2023/12/27 09:00:24;;;;;;;2.03;1.10;;;4.00;99.90;;;;;;5071413;28;20072;-60
2023/12/27 09:02:50;;;;;;;2.05;1.58;;;4.00;99.90;;;;;;5069956;28;20036;-59
2023/12/27 09:05:16;;;;;;;1.73;1.23;;;4.20;99.90;;;;;;5053792;28;20044;-59
2023/12/27 09:07:41;;;;;;;2.85;1.67;;;4.10;99.90;;;;;;5071564;28;20051;-60
2023/12/27 09:10:07;;;;;;;1.30;1.20;;;4.10;99.90;;;;;;5071416;28;20036;-59
2023/12/27 09:12:33;;;;;;;1.77;1.30;;;4.20;99.90;;;;;;5071608;28;20043;-59
2023/12/27 09:14:58;;;;;;;1.77;1.33;;;4.20;99.90;;;;;;5073481;28;20051;-59
2023/12/27 09:17:24;;;;;;;3.30;1.58;;;4.50;99.90;;;;;;5074339;28;20530;-59
2023/12/27 09:19:50;;;;;;;3.22;1.77;;;4.20;99.90;;;;;;5075562;28;20044;-59
2023/12/27 09:22:15;;;;;;;1.40;1.27;;;4.50;99.90;;;;;;5075454;28;20036;-59
2023/12/27 09:24:41;;;;;;;1.25;1.08;;;4.30;99.90;;;;;;5073700;28;20067;-63
2023/12/27 09:27:07;;;;;;;3.05;1.50;;;5.00;99.90;;;;;;5074588;28;20139;-63
2023/12/27 09:29:33;;;;;;;3.22;1.52;;;4.40;99.90;;;;;;5074898;28;20052;-63
2023/12/27 09:31:59;;;;;;;3.13;1.65;;;4.90;99.90;;;;;;5074810;28;20408;-63
2023/12/27 09:34:25;;;;;;;1.75;1.38;;;4.60;99.90;;;;;;5074386;28;20052;-63
2023/12/27 09:36:51;;;;;;;3.72;1.50;;;4.30;99.90;;;;;;5074418;28;20040;-63
2023/12/27 09:39:16;;;;;;;1.88;1.10;;;5.00;99.90;;;;;;5074421;28;20047;-63
2023/12/27 09:41:42;;;;;;;2.08;1.40;;;4.40;99.90;;;;;;5074355;28;20087;-63
2023/12/27 09:44:10;;;;;;;2.10;1.48;;;4.40;99.90;;;;;;5074310;28;20039;-63
2023/12/27 09:46:38;;;;;;;1.63;1.50;;;4.40;99.90;;;;;;5072941;28;20055;-63
2023/12/27 09:49:04;;;;;;;1.80;1.30;;;4.40;99.90;;;;;;5074439;28;20044;-63
2023/12/27 09:51:31;;;;;;;1.95;1.50;;;4.50;99.90;;;;;;5074417;28;20068;-63
2023/12/27 09:53:57;;;;;;;1.70;1.40;;;4.90;99.90;;;;;;5074273;28;20052;-63
2023/12/27 09:56:23;;;;;;;1.50;1.40;;;4.50;99.90;;;;;;5072871;28;20134;-63
2023/12/27 09:58:51;;;;;;;2.42;1.55;;;4.50;99.90;;;;;;5072711;28;20381;-63
2023/12/27 10:01:23;;;;;;;2.47;1.60;;;4.60;99.90;;;;;;5074053;28;20032;-63
2023/12/27 10:03:52;;;;;;;;;;;4.60;99.90;;;;;;5074653;28;20048;-63
2023/12/27 10:06:24;;;;;;;2.65;1.98;;;4.80;99.90;;;;;;5073888;28;19966;-63
2023/12/27 10:08:51;;;;;;;2.78;1.60;;;4.60;99.90;;;;;;5073860;28;20066;-63
2023/12/27 10:11:18;;;;;;;3.08;1.70;;;4.70;99.90;;;;;;5074053;28;20066;-63
2023/12/27 10:13:45;;;;;;;2.88;2.25;;;4.80;99.90;;;;;;5072465;28;20086;-64
2023/12/27 10:16:10;;;;;;;2.33;1.92;;;4.70;99.90;;;;;;5074043;28;20487;-63
2023/12/27 10:18:36;;;;;;;3.08;2.25;;;4.80;99.90;;;;;;5073600;28;20047;-63
2023/12/27 10:21:02;;;;;;;1.60;1.45;;;4.80;99.90;;;;;;5055673;28;20048;-63
2023/12/27 10:23:28;;;;;;;2.90;1.77;;;4.80;99.90;;;;;;5073259;28;20040;-63
2023/12/27 10:25:54;;;;;;;2.08;1.88;;;5.10;99.90;;;;;;5073774;28;20471;-63
2023/12/27 10:28:25;;;;;;;1.73;1.60;;;4.90;99.90;;;;;;5073473;28;20087;-63
2023/12/27 10:30:52;;;;;;;4.43;2.10;;;5.10;99.90;;;;;;5073444;28;20044;-63
2023/12/27 10:33:20;;;;;;;2.92;1.92;;;5.00;99.90;;;;;;5073818;28;20040;-63
2023/12/27 10:35:47;;;;;;;1.63;1.40;;;5.00;99.90;;;;;;5055343;28;20396;-63
2023/12/27 10:38:13;;;;;;;4.13;2.28;;;5.10;99.90;;;;;;5073499;28;20040;-63
2023/12/27 10:40:42;;;;;;;2.03;1.60;;;5.20;99.90;;;;;;5073174;28;20032;-63
2023/12/27 10:43:08;;;;;;;2.63;1.77;;;5.80;99.90;;;;;;5073211;28;20136;-63
2023/12/27 10:45:35;;;;;;;1.30;1.20;;;5.70;99.90;;;;;;5073432;28;20377;-63
2023/12/27 10:48:06;;;;;;;2.88;1.75;;;5.20;99.90;;;;;;5073318;28;20399;-63
2023/12/27 10:50:33;;;;;;;2.00;1.70;;;5.20;99.90;;;;;;5055070;28;20044;-63
2023/12/27 10:53:05;;;;;;;2.88;2.30;;;5.20;99.90;;;;;;5072762;28;20060;-63
2023/12/27 10:55:33;;;;;;;2.22;1.85;;;5.20;99.90;;;;;;5072966;28;20040;-63
2023/12/27 10:58:01;;;;;;;3.33;1.52;;;5.60;99.90;;;;;;5071538;28;20036;-64
2023/12/27 11:00:28;;;;;;;2.08;1.77;;;;;;;;;;5073092;28;20468;-63
2023/12/27 11:02:55;;;;;;;2.10;1.65;;;;;;;;;;5072978;28;20036;-64
2023/12/27 11:05:22;;;;;;;2.67;1.67;;;;;;;;;;5054798;28;20044;-64
2023/12/27 11:07:50;;;;;;;2.30;1.77;;;;;;;;;;5072621;28;20079;-64
2023/12/27 11:10:16;;;;;;;3.15;2.08;;;;;;;;;;5071328;28;20346;-64
2023/12/27 11:12:50;;;;;;;3.05;1.90;;;5.50;99.90;;;;;;5072863;28;20102;-64
2023/12/27 11:15:18;;;;;;;3.45;1.75;;;5.50;99.90;;;;;;5071236;28;20106;-64
2023/12/27 11:17:45;;;;;;;1.40;1.30;;;5.50;99.90;;;;;;5072812;28;20412;-64
2023/12/27 11:20:16;;;;;;;2.65;1.88;;;5.50;99.90;;;;;;5071181;28;20048;-64
2023/12/27 11:22:45;;;;;;;2.17;1.67;;;5.40;99.90;;;;;;5072641;28;20044;-65
2023/12/27 11:25:12;;;;;;;2.10;1.90;;;5.40;99.90;;;;;;5072621;28;20093;-65
2023/12/27 11:27:39;;;;;;;2.47;1.80;;;5.40;99.90;;;;;;5072601;28;20498;-65
2023/12/27 11:30:09;;;;;;;3.15;2.03;;;5.40;99.90;;;;;;5072565;28;20396;-65
2023/12/27 11:32:36;;;;;;;3.17;2.57;;;5.40;99.90;;;;;;5072546;28;20051;-65
2023/12/27 11:35:02;;;;;;;3.17;2.00;;;6.20;99.90;;;;;;5072221;28;20054;-65
2023/12/27 11:37:27;;;;;;;2.25;1.65;;;5.40;99.90;;;;;;5071689;28;20029;-65
2023/12/27 11:39:53;;;;;;;2.10;1.75;;;5.40;99.90;;;;;;5072403;28;20039;-65
2023/12/27 11:42:21;;;;;;;3.63;1.73;;;5.70;99.90;;;;;;5070803;28;20068;-65
2023/12/27 11:44:58;;;;;;;6.40;2.15;;;5.40;99.90;;;;;;5071084;28;20056;-65
2023/12/27 11:47:27;;;;;;;2.22;1.90;;;5.40;99.90;;;;;;5072270;28;20399;-66
2023/12/27 11:50:16;;;;;;;4.55;2.10;;;5.40;99.90;;;;;;5072348;28;20056;-65
2023/12/27 11:52:45;;;;;;;3.03;2.03;;;5.30;99.90;;;;;;5071915;28;20056;-65
2023/12/27 11:55:18;;;;;;;2.20;1.77;;;5.30;99.90;;;;;;5070558;28;20048;-65
2023/12/27 11:57:44;;;;;;;2.58;1.83;;;5.30;99.90;;;;;;5072291;28;20040;-65
2023/12/27 12:00:22;;;;;;;3.25;1.90;;;5.30;99.90;;;;;;5071960;28;20050;-65
2023/12/27 12:02:55;;;;;;;1.80;1.65;;;5.30;99.90;;;;;;5070559;28;20388;-65
2023/12/27 12:05:51;;;;;;;1.90;1.58;;;5.20;99.90;;;;;;5071873;28;20084;-65
2023/12/27 12:08:19;;;;;;;3.20;2.05;;;5.30;99.90;;;;;;5072185;28;20403;-65
2023/12/27 12:11:07;;;;;;;2.33;1.75;;;5.20;99.90;;;;;;5072067;28;20392;-66
2023/12/27 12:13:33;;;;;;;2.72;1.85;;;5.30;99.90;;;;;;5072009;28;20173;-66
2023/12/27 12:16:00;;;;;;;2.97;2.47;;;5.30;99.90;;;;;;5071754;28;20130;-66
2023/12/27 12:18:26;;;;;;;2.85;2.40;;;5.20;99.90;;;;;;5071731;28;20036;-66
2023/12/27 12:20:52;;;;;;;2.40;2.20;;;5.20;99.90;;;;;;5070415;28;20048;-66
2023/12/27 12:23:18;;;;;;;2.55;1.80;;;5.20;99.90;;;;;;5071991;28;20039;-67
2023/12/27 12:25:44;;;;;;;3.03;1.90;;;5.30;99.90;;;;;;5071906;28;20450;-66
2023/12/27 12:28:10;;;;;;;2.92;2.28;;;5.30;99.90;;;;;;5071969;28;20090;-66
2023/12/27 12:30:37;;;;;;;2.33;2.13;;;5.30;99.90;;;;;;5071817;28;20455;-66
2023/12/27 12:33:05;;;;;;;2.13;1.90;;;5.30;99.90;;;;;;5071618;28;20040;-66
2023/12/27 12:35:31;;;;;;;2.05;1.90;;;5.30;99.90;;;;;;5071787;28;20040;-66
2023/12/27 12:37:57;;;;;;;1.92;1.83;;;5.30;99.90;;;;;;5071596;28;20104;-66
2023/12/27 12:40:23;;;;;;;2.30;1.90;;;5.40;99.90;;;;;;5071784;28;20036;-66
2023/12/27 12:42:50;;;;;;;2.20;1.90;;;5.50;99.90;;;;;;5071799;28;20052;-66
2023/12/27 12:45:16;;;;;;;2.20;2.00;;;5.40;99.90;;;;;;5072086;28;20083;-66
2023/12/27 12:47:42;;;;;;;3.15;2.33;;;5.40;99.90;;;;;;5073514;28;20056;-66
2023/12/27 12:50:08;;;;;;;2.22;2.03;;;5.40;99.90;;;;;;5075503;28;20044;-66
2023/12/27 12:52:35;;;;;;;2.33;2.13;;;5.40;99.90;;;;;;5075198;28;20106;-66
2023/12/27 12:55:01;;;;;;;2.30;2.03;;;5.50;99.90;;;;;;5075669;28;20055;-63